MOL Paramount — 3ECH9 — position and weather

sailwx.info

Track history (hours):
 
Tides and Currents Weather Stations Pressure Air Temp Water Temp Dewpoint Dewpoint Depression Visibility Wind Speed Wind Dir Waves Ship Positions

MOL Paramount

Last reported at 2017-Oct-16 07:32 UTC. Time now 2017-Oct-17 03:56 UTC.
Position S 24°02' W 045°56'.

Length 293 m; draft 12.1 m.

Type: Cargo ship. MMSI: 371519000.

Date/timePositionNaut miles runAvg speedWind from/ knotsBaromVisibWave heightAir tempDewpointWater temp
2017-Oct-16 07:32S 24°02' W 045°56'118.9
2017-Oct-16 07:29S 24°02' W 045°57'918.9
2017-Oct-16 07:00S 24°04' W 046°07'917.6
2017-Oct-16 06:30S 24°05' W 046°17'5 9.9
2017-Oct-16 06:00S 24°02' W 046°21'3 6.7
2017-Oct-16 05:30S 23°60' W 046°19'3 5.5
2017-Oct-16 05:00S 23°57' W 046°19'3 0.1
2017-Oct-15 07:20S 23°55' W 046°21'1 0.3
2017-Oct-15 05:17S 23°55' W 046°21'2 3.6
2017-Oct-15 04:46S 23°56' W 046°19'2 8.3
2017-Oct-15 04:30S 23°58' W 046°18'3 6.1
2017-Oct-15 04:00S 24°00' W 046°20'3 5.5
2017-Oct-15 03:30S 24°03' W 046°20'1 1.6
2017-Oct-15 03:00S 24°04' W 046°20'3 4.9
2017-Oct-15 02:29S 24°06' W 046°21'0 0.2
2017-Oct-15 02:00S 24°06' W 046°21'0 0.0
2017-Oct-15 01:20S 24°06' W 046°21'0 0.1
2017-Oct-15 00:56S 24°06' W 046°21'0 0.1
2017-Oct-15 00:27S 24°06' W 046°21'0 0.0
2017-Oct-15 00:00S 24°06' W 046°21'0 0.0
2017-Oct-14 23:27S 24°06' W 046°21'0 0.0
2017-Oct-14 22:56S 24°06' W 046°21'0 0.1
2017-Oct-14 22:27S 24°06' W 046°21'0 0.5
2017-Oct-14 22:00S 24°06' W 046°21'2 3.7
2017-Oct-14 21:30S 24°05' W 046°23'1 1.5
2017-Oct-14 21:00S 24°06' W 046°23'1 2.1
2017-Oct-14 20:30S 24°07' W 046°23'1 2.1
2017-Oct-14 20:00S 24°08' W 046°23'3 6.7
2017-Oct-14 19:30S 24°11' W 046°25'613.1
2017-Oct-14 19:00S 24°17' W 046°28'919.0
2017-Oct-14 18:30S 24°25' W 046°33'1020.5
2017-Oct-14 18:00S 24°33' W 046°41'1121.2
2017-Oct-14 17:30S 24°38' W 046°51'1121.2
2017-Oct-14 17:00S 24°44' W 047°01'  
2017-Oct-11 20:45S 24°44' W 046°45'516.6
2017-Oct-11 20:28S 24°40' W 046°42'816.5
2017-Oct-11 20:01S 24°33' W 046°38'816.3
2017-Oct-11 19:30S 24°26' W 046°34'816.4
2017-Oct-11 19:00S 24°18' W 046°31'816.2
2017-Oct-11 18:30S 24°11' W 046°27'815.5
2017-Oct-11 18:00S 24°05' W 046°22'510.2
2017-Oct-11 17:30S 23°60' W 046°20'3 5.0
2017-Oct-11 16:57S 23°58' W 046°18'0 0.0
2017-Oct-10 23:57S 23°58' W 046°18'0 0.0
2017-Oct-10 23:30S 23°58' W 046°18'0 0.0
2017-Oct-10 22:57S 23°58' W 046°18'0 0.0
2017-Oct-10 22:30S 23°58' W 046°18'0 0.0
2017-Oct-10 21:45S 23°58' W 046°18'0 0.0
2017-Oct-10 21:15S 23°58' W 046°18'0 0.0
2017-Oct-10 20:57S 23°58' W 046°18'0 0.0
2017-Oct-10 20:30S 23°58' W 046°18'0 0.0
2017-Oct-10 19:57S 23°58' W 046°18'1 1.7
2017-Oct-10 19:30S 23°59' W 046°17'3 6.9
2017-Oct-10 19:00S 24°01' W 046°20'4 8.0
2017-Oct-10 18:30S 24°04' W 046°18'3 6.8
2017-Oct-10 18:00S 24°07' W 046°15'0 0.8
2017-Oct-10 17:29S 24°06' W 046°16'0 0.0
2017-Oct-10 16:53S 24°06' W 046°16'0 0.0
2017-Oct-10 16:29S 24°06' W 046°16'0 0.1
2017-Oct-10 15:53S 24°06' W 046°16'0 0.0
2017-Oct-10 15:29S 24°06' W 046°16'0 0.1
2017-Oct-10 14:56S 24°06' W 046°16'0 0.1
2017-Oct-10 13:59S 24°06' W 046°16'0 0.1
2017-Oct-10 13:30S 24°06' W 046°16'1 1.9
2017-Oct-10 13:00S 24°05' W 046°15'0 0.5
2017-Oct-10 12:30S 24°05' W 046°15'0 0.5
2017-Oct-10 12:00S 24°05' W 046°15'0 0.8
2017-Oct-10 11:30S 24°06' W 046°15'1 1.1
2017-Oct-10 11:00S 24°06' W 046°16'0 0.8
2017-Oct-10 10:30S 24°06' W 046°16'0 0.5
2017-Oct-10 10:00S 24°06' W 046°17'0 0.4
2017-Oct-10 09:28S 24°06' W 046°17'0 0.0
2017-Oct-10 08:58S 24°06' W 046°17'0 0.0
2017-Oct-10 08:28S 24°06' W 046°17'0 0.1
2017-Oct-10 07:52S 24°06' W 046°17'0 0.0
2017-Oct-10 07:28S 24°06' W 046°17'0 0.0
2017-Oct-10 06:58S 24°06' W 046°17'0 0.0
2017-Oct-10 06:25S 24°06' W 046°17'0 0.0
2017-Oct-10 05:58S 24°06' W 046°17'0 0.0
2017-Oct-10 05:28S 24°06' W 046°17'0 0.0
2017-Oct-10 04:58S 24°06' W 046°17'0 0.0
2017-Oct-10 04:28S 24°06' W 046°17'0 0.0
2017-Oct-10 03:55S 24°06' W 046°17'0 0.0
2017-Oct-10 03:22S 24°06' W 046°17'0 0.0
2017-Oct-10 02:58S 24°06' W 046°17'0 0.0
2017-Oct-10 02:28S 24°06' W 046°17'0 0.0
2017-Oct-10 01:58S 24°06' W 046°17'0 0.0
2017-Oct-10 01:28S 24°06' W 046°17'0 0.0
2017-Oct-10 00:58S 24°06' W 046°17'0 0.0
2017-Oct-10 00:28S 24°06' W 046°17'0 0.0
2017-Oct-09 23:58S 24°06' W 046°17'0 0.0
2017-Oct-09 23:25S 24°06' W 046°17'0 0.0
2017-Oct-09 22:58S 24°06' W 046°17'0 0.0
2017-Oct-09 22:28S 24°06' W 046°17'0 0.0
2017-Oct-09 21:58S 24°06' W 046°17'0 0.1
2017-Oct-09 21:28S 24°06' W 046°17'0 0.1
2017-Oct-09 20:58S 24°06' W 046°17'0 0.0
2017-Oct-09 20:28S 24°06' W 046°17'0 0.1
2017-Oct-09 19:58S 24°06' W 046°17'0 0.1
2017-Oct-09 19:28S 24°06' W 046°17'0 0.1
2017-Oct-09 18:58S 24°06' W 046°17'1 3.2
2017-Oct-09 18:30S 24°05' W 046°16'510.6
2017-Oct-09 18:01S 24°04' W 046°10'510.7
2017-Oct-09 17:30S 24°03' W 046°04'612.8
2017-Oct-09 17:00S 24°02' W 045°57'  
Track history (hours):
 
Tides and Currents Weather Stations Pressure Air Temp Water Temp Dewpoint Dewpoint Depression Visibility Wind Speed Wind Dir Waves Ship Positions

MOL Paramount

Last reported at 2017-Oct-16 07:32 UTC. Time now 2017-Oct-17 03:56 UTC.
Position S 24°02' W 045°56'.

Length 293 m; draft 12.1 m.

Type: Cargo ship. MMSI: 371519000.

Date/timePositionNaut miles runAvg speedWind from/ knotsBaromVisibWave heightAir tempDewpointWater temp
2017-Oct-16 07:32S 24°02' W 045°56'118.9
2017-Oct-16 07:29S 24°02' W 045°57'918.9
2017-Oct-16 07:00S 24°04' W 046°07'917.6
2017-Oct-16 06:30S 24°05' W 046°17'5 9.9
2017-Oct-16 06:00S 24°02' W 046°21'3 6.7
2017-Oct-16 05:30S 23°60' W 046°19'3 5.5
2017-Oct-16 05:00S 23°57' W 046°19'3 0.1
2017-Oct-15 07:20S 23°55' W 046°21'1 0.3
2017-Oct-15 05:17S 23°55' W 046°21'2 3.6
2017-Oct-15 04:46S 23°56' W 046°19'2 8.3
2017-Oct-15 04:30S 23°58' W 046°18'3 6.1
2017-Oct-15 04:00S 24°00' W 046°20'3 5.5
2017-Oct-15 03:30S 24°03' W 046°20'1 1.6
2017-Oct-15 03:00S 24°04' W 046°20'3 4.9
2017-Oct-15 02:29S 24°06' W 046°21'0 0.2
2017-Oct-15 02:00S 24°06' W 046°21'0 0.0
2017-Oct-15 01:20S 24°06' W 046°21'0 0.1
2017-Oct-15 00:56S 24°06' W 046°21'0 0.1
2017-Oct-15 00:27S 24°06' W 046°21'0 0.0
2017-Oct-15 00:00S 24°06' W 046°21'0 0.0
2017-Oct-14 23:27S 24°06' W 046°21'0 0.0
2017-Oct-14 22:56S 24°06' W 046°21'0 0.1
2017-Oct-14 22:27S 24°06' W 046°21'0 0.5
2017-Oct-14 22:00S 24°06' W 046°21'2 3.7
2017-Oct-14 21:30S 24°05' W 046°23'1 1.5
2017-Oct-14 21:00S 24°06' W 046°23'1 2.1
2017-Oct-14 20:30S 24°07' W 046°23'1 2.1
2017-Oct-14 20:00S 24°08' W 046°23'3 6.7
2017-Oct-14 19:30S 24°11' W 046°25'613.1
2017-Oct-14 19:00S 24°17' W 046°28'919.0
2017-Oct-14 18:30S 24°25' W 046°33'1020.5
2017-Oct-14 18:00S 24°33' W 046°41'1121.2
2017-Oct-14 17:30S 24°38' W 046°51'1121.2
2017-Oct-14 17:00S 24°44' W 047°01'  
2017-Oct-11 20:45S 24°44' W 046°45'516.6
2017-Oct-11 20:28S 24°40' W 046°42'816.5
2017-Oct-11 20:01S 24°33' W 046°38'816.3
2017-Oct-11 19:30S 24°26' W 046°34'816.4
2017-Oct-11 19:00S 24°18' W 046°31'816.2
2017-Oct-11 18:30S 24°11' W 046°27'815.5
2017-Oct-11 18:00S 24°05' W 046°22'510.2
2017-Oct-11 17:30S 23°60' W 046°20'3 5.0
2017-Oct-11 16:57S 23°58' W 046°18'0 0.0
2017-Oct-10 23:57S 23°58' W 046°18'0 0.0
2017-Oct-10 23:30S 23°58' W 046°18'0 0.0
2017-Oct-10 22:57S 23°58' W 046°18'0 0.0
2017-Oct-10 22:30S 23°58' W 046°18'0 0.0
2017-Oct-10 21:45S 23°58' W 046°18'0 0.0
2017-Oct-10 21:15S 23°58' W 046°18'0 0.0
2017-Oct-10 20:57S 23°58' W 046°18'0 0.0
2017-Oct-10 20:30S 23°58' W 046°18'0 0.0
2017-Oct-10 19:57S 23°58' W 046°18'1 1.7
2017-Oct-10 19:30S 23°59' W 046°17'3 6.9
2017-Oct-10 19:00S 24°01' W 046°20'4 8.0
2017-Oct-10 18:30S 24°04' W 046°18'3 6.8
2017-Oct-10 18:00S 24°07' W 046°15'0 0.8
2017-Oct-10 17:29S 24°06' W 046°16'0 0.0
2017-Oct-10 16:53S 24°06' W 046°16'0 0.0
2017-Oct-10 16:29S 24°06' W 046°16'0 0.1
2017-Oct-10 15:53S 24°06' W 046°16'0 0.0
2017-Oct-10 15:29S 24°06' W 046°16'0 0.1
2017-Oct-10 14:56S 24°06' W 046°16'0 0.1
2017-Oct-10 13:59S 24°06' W 046°16'0 0.1
2017-Oct-10 13:30S 24°06' W 046°16'1 1.9
2017-Oct-10 13:00S 24°05' W 046°15'0 0.5
2017-Oct-10 12:30S 24°05' W 046°15'0 0.5
2017-Oct-10 12:00S 24°05' W 046°15'0 0.8
2017-Oct-10 11:30S 24°06' W 046°15'1 1.1
2017-Oct-10 11:00S 24°06' W 046°16'0 0.8
2017-Oct-10 10:30S 24°06' W 046°16'0 0.5
2017-Oct-10 10:00S 24°06' W 046°17'0 0.4
2017-Oct-10 09:28S 24°06' W 046°17'0 0.0
2017-Oct-10 08:58S 24°06' W 046°17'0 0.0
2017-Oct-10 08:28S 24°06' W 046°17'0 0.1
2017-Oct-10 07:52S 24°06' W 046°17'0 0.0
2017-Oct-10 07:28S 24°06' W 046°17'0 0.0
2017-Oct-10 06:58S 24°06' W 046°17'0 0.0
2017-Oct-10 06:25S 24°06' W 046°17'0 0.0
2017-Oct-10 05:58S 24°06' W 046°17'0 0.0
2017-Oct-10 05:28S 24°06' W 046°17'0 0.0
2017-Oct-10 04:58S 24°06' W 046°17'0 0.0
2017-Oct-10 04:28S 24°06' W 046°17'0 0.0
2017-Oct-10 03:55S 24°06' W 046°17'0 0.0
2017-Oct-10 03:22S 24°06' W 046°17'0 0.0
2017-Oct-10 02:58S 24°06' W 046°17'0 0.0
2017-Oct-10 02:28S 24°06' W 046°17'0 0.0
2017-Oct-10 01:58S 24°06' W 046°17'0 0.0
2017-Oct-10 01:28S 24°06' W 046°17'0 0.0
2017-Oct-10 00:58S 24°06' W 046°17'0 0.0
2017-Oct-10 00:28S 24°06' W 046°17'0 0.0
2017-Oct-09 23:58S 24°06' W 046°17'0 0.0
2017-Oct-09 23:25S 24°06' W 046°17'0 0.0
2017-Oct-09 22:58S 24°06' W 046°17'0 0.0
2017-Oct-09 22:28S 24°06' W 046°17'0 0.0
2017-Oct-09 21:58S 24°06' W 046°17'0 0.1
2017-Oct-09 21:28S 24°06' W 046°17'0 0.1
2017-Oct-09 20:58S 24°06' W 046°17'0 0.0
2017-Oct-09 20:28S 24°06' W 046°17'0 0.1
2017-Oct-09 19:58S 24°06' W 046°17'0 0.1
2017-Oct-09 19:28S 24°06' W 046°17'0 0.1
2017-Oct-09 18:58S 24°06' W 046°17'1 3.2
2017-Oct-09 18:30S 24°05' W 046°16'510.6
2017-Oct-09 18:01S 24°04' W 046°10'510.7
2017-Oct-09 17:30S 24°03' W 046°04'612.8
2017-Oct-09 17:00S 24°02' W 045°57'  

Dump ship's entire track history